sensor_id;sensor_type;location;lat;lon;timestamp;P1;durP1;ratioP1;P2;durP2;ratioP2
44925;SDS011;30662;51.210;7.656;2024-02-16T00:01:08;3.20;;;1.25;;
44925;SDS011;30662;51.210;7.656;2024-02-16T00:03:36;6.93;;;1.20;;
44925;SDS011;30662;51.210;7.656;2024-02-16T00:06:03;3.78;;;1.42;;
44925;SDS011;30662;51.210;7.656;2024-02-16T00:08:30;5.03;;;1.42;;
44925;SDS011;30662;51.210;7.656;2024-02-16T00:10:57;2.80;;;1.20;;
44925;SDS011;30662;51.210;7.656;2024-02-16T00:13:25;2.40;;;1.17;;
44925;SDS011;30662;51.210;7.656;2024-02-16T00:15:52;2.95;;;1.08;;
44925;SDS011;30662;51.210;7.656;2024-02-16T00:18:18;5.05;;;1.35;;
44925;SDS011;30662;51.210;7.656;2024-02-16T00:20:47;2.33;;;1.00;;
44925;SDS011;30662;51.210;7.656;2024-02-16T00:23:13;2.22;;;1.25;;
44925;SDS011;30662;51.210;7.656;2024-02-16T00:25:40;4.90;;;1.17;;
44925;SDS011;30662;51.210;7.656;2024-02-16T00:28:07;2.33;;;1.30;;
44925;SDS011;30662;51.210;7.656;2024-02-16T00:30:34;1.25;;;0.90;;
44925;SDS011;30662;51.210;7.656;2024-02-16T00:33:01;6.78;;;1.40;;
44925;SDS011;30662;51.210;7.656;2024-02-16T00:35:28;2.50;;;1.20;;
44925;SDS011;30662;51.210;7.656;2024-02-16T00:37:56;2.20;;;1.30;;
44925;SDS011;30662;51.210;7.656;2024-02-16T00:40:22;3.63;;;1.65;;
44925;SDS011;30662;51.210;7.656;2024-02-16T00:42:49;4.38;;;1.52;;
44925;SDS011;30662;51.210;7.656;2024-02-16T00:45:16;2.78;;;1.33;;
44925;SDS011;30662;51.210;7.656;2024-02-16T00:47:43;4.18;;;1.40;;
44925;SDS011;30662;51.210;7.656;2024-02-16T00:50:09;4.05;;;1.15;;
44925;SDS011;30662;51.210;7.656;2024-02-16T00:52:36;3.95;;;1.58;;
44925;SDS011;30662;51.210;7.656;2024-02-16T00:55:05;4.10;;;1.30;;
44925;SDS011;30662;51.210;7.656;2024-02-16T00:57:32;3.55;;;1.48;;
44925;SDS011;30662;51.210;7.656;2024-02-16T00:59:58;3.55;;;1.48;;
44925;SDS011;30662;51.210;7.656;2024-02-16T01:02:25;3.88;;;1.30;;
44925;SDS011;30662;51.210;7.656;2024-02-16T01:04:55;4.10;;;1.30;;
44925;SDS011;30662;51.210;7.656;2024-02-16T01:07:22;2.47;;;1.15;;
44925;SDS011;30662;51.210;7.656;2024-02-16T01:09:49;3.10;;;1.23;;
44925;SDS011;30662;51.210;7.656;2024-02-16T01:12:17;3.20;;;1.38;;
44925;SDS011;30662;51.210;7.656;2024-02-16T01:14:43;2.78;;;1.10;;
44925;SDS011;30662;51.210;7.656;2024-02-16T01:17:10;4.05;;;1.52;;
44925;SDS011;30662;51.210;7.656;2024-02-16T01:19:37;4.35;;;1.40;;
44925;SDS011;30662;51.210;7.656;2024-02-16T01:22:03;4.03;;;1.63;;
44925;SDS011;30662;51.210;7.656;2024-02-16T01:24:30;5.80;;;1.20;;
44925;SDS011;30662;51.210;7.656;2024-02-16T01:26:57;5.22;;;1.42;;
44925;SDS011;30662;51.210;7.656;2024-02-16T01:29:25;4.18;;;0.90;;
44925;SDS011;30662;51.210;7.656;2024-02-16T01:31:52;5.47;;;1.45;;
44925;SDS011;30662;51.210;7.656;2024-02-16T01:34:18;3.70;;;1.50;;
44925;SDS011;30662;51.210;7.656;2024-02-16T01:36:46;3.55;;;1.65;;
44925;SDS011;30662;51.210;7.656;2024-02-16T01:39:13;3.88;;;1.63;;
44925;SDS011;30662;51.210;7.656;2024-02-16T01:41:40;2.30;;;1.20;;
44925;SDS011;30662;51.210;7.656;2024-02-16T01:44:06;3.38;;;1.23;;
44925;SDS011;30662;51.210;7.656;2024-02-16T01:46:35;3.83;;;1.42;;
44925;SDS011;30662;51.210;7.656;2024-02-16T01:49:02;6.25;;;1.83;;
44925;SDS011;30662;51.210;7.656;2024-02-16T01:51:29;2.30;;;1.20;;
44925;SDS011;30662;51.210;7.656;2024-02-16T01:53:56;3.63;;;1.42;;
44925;SDS011;30662;51.210;7.656;2024-02-16T01:56:23;3.22;;;1.25;;
44925;SDS011;30662;51.210;7.656;2024-02-16T01:58:50;4.35;;;1.63;;
44925;SDS011;30662;51.210;7.656;2024-02-16T02:01:17;1.80;;;1.30;;
44925;SDS011;30662;51.210;7.656;2024-02-16T02:03:45;3.03;;;1.05;;
44925;SDS011;30662;51.210;7.656;2024-02-16T02:06:12;3.20;;;1.25;;
44925;SDS011;30662;51.210;7.656;2024-02-16T02:08:39;3.25;;;1.20;;
44925;SDS011;30662;51.210;7.656;2024-02-16T02:11:10;7.07;;;1.95;;
44925;SDS011;30662;51.210;7.656;2024-02-16T02:13:37;3.80;;;1.27;;
44925;SDS011;30662;51.210;7.656;2024-02-16T02:16:04;3.28;;;1.90;;
44925;SDS011;30662;51.210;7.656;2024-02-16T02:18:33;2.53;;;1.33;;
44925;SDS011;30662;51.210;7.656;2024-02-16T02:21:01;5.00;;;1.70;;
44925;SDS011;30662;51.210;7.656;2024-02-16T02:23:29;4.53;;;1.80;;
44925;SDS011;30662;51.210;7.656;2024-02-16T02:25:56;4.25;;;1.80;;
44925;SDS011;30662;51.210;7.656;2024-02-16T02:28:25;3.65;;;1.70;;
44925;SDS011;30662;51.210;7.656;2024-02-16T02:30:51;5.50;;;1.42;;
44925;SDS011;30662;51.210;7.656;2024-02-16T02:33:18;2.47;;;1.40;;
44925;SDS011;30662;51.210;7.656;2024-02-16T02:35:45;2.55;;;1.50;;
44925;SDS011;30662;51.210;7.656;2024-02-16T02:38:12;2.67;;;1.73;;
44925;SDS011;30662;51.210;7.656;2024-02-16T02:40:40;5.78;;;1.55;;
44925;SDS011;30662;51.210;7.656;2024-02-16T02:43:07;3.17;;;1.30;;
44925;SDS011;30662;51.210;7.656;2024-02-16T02:45:33;4.78;;;1.23;;
44925;SDS011;30662;51.210;7.656;2024-02-16T02:48:00;2.53;;;1.35;;
44925;SDS011;30662;51.210;7.656;2024-02-16T02:50:27;2.45;;;1.30;;
44925;SDS011;30662;51.210;7.656;2024-02-16T02:52:54;3.08;;;1.67;;
44925;SDS011;30662;51.210;7.656;2024-02-16T02:55:20;3.35;;;1.80;;
44925;SDS011;30662;51.210;7.656;2024-02-16T02:57:48;2.42;;;1.45;;
44925;SDS011;30662;51.210;7.656;2024-02-16T03:00:15;6.95;;;1.80;;
44925;SDS011;30662;51.210;7.656;2024-02-16T03:02:42;3.42;;;1.80;;
44925;SDS011;30662;51.210;7.656;2024-02-16T03:05:09;2.97;;;1.33;;
44925;SDS011;30662;51.210;7.656;2024-02-16T03:07:36;3.88;;;1.70;;
44925;SDS011;30662;51.210;7.656;2024-02-16T03:10:03;2.88;;;1.77;;
44925;SDS011;30662;51.210;7.656;2024-02-16T03:12:31;2.90;;;1.63;;
44925;SDS011;30662;51.210;7.656;2024-02-16T03:14:59;2.80;;;1.13;;
44925;SDS011;30662;51.210;7.656;2024-02-16T03:17:26;4.93;;;1.65;;
44925;SDS011;30662;51.210;7.656;2024-02-16T03:19:53;4.72;;;1.45;;
44925;SDS011;30662;51.210;7.656;2024-02-16T03:22:20;2.60;;;1.20;;
44925;SDS011;30662;51.210;7.656;2024-02-16T03:24:47;3.75;;;1.55;;
44925;SDS011;30662;51.210;7.656;2024-02-16T03:27:13;3.33;;;1.65;;
44925;SDS011;30662;51.210;7.656;2024-02-16T03:29:40;4.18;;;1.73;;
44925;SDS011;30662;51.210;7.656;2024-02-16T03:32:08;5.38;;;1.83;;
44925;SDS011;30662;51.210;7.656;2024-02-16T03:34:34;4.05;;;1.63;;
44925;SDS011;30662;51.210;7.656;2024-02-16T03:37:01;5.03;;;1.98;;
44925;SDS011;30662;51.210;7.656;2024-02-16T03:39:28;2.50;;;1.17;;
44925;SDS011;30662;51.210;7.656;2024-02-16T03:41:55;2.25;;;1.50;;
44925;SDS011;30662;51.210;7.656;2024-02-16T03:44:21;3.55;;;1.30;;
44925;SDS011;30662;51.210;7.656;2024-02-16T03:46:48;2.85;;;1.40;;
44925;SDS011;30662;51.210;7.656;2024-02-16T03:49:16;3.20;;;1.70;;
44925;SDS011;30662;51.210;7.656;2024-02-16T03:51:43;4.90;;;1.55;;
44925;SDS011;30662;51.210;7.656;2024-02-16T03:54:10;2.13;;;1.13;;
44925;SDS011;30662;51.210;7.656;2024-02-16T03:56:37;2.95;;;1.70;;
44925;SDS011;30662;51.210;7.656;2024-02-16T03:59:03;5.63;;;1.85;;
44925;SDS011;30662;51.210;7.656;2024-02-16T04:01:32;4.20;;;1.75;;
44925;SDS011;30662;51.210;7.656;2024-02-16T04:03:59;5.22;;;2.33;;
44925;SDS011;30662;51.210;7.656;2024-02-16T04:06:27;2.83;;;1.35;;
44925;SDS011;30662;51.210;7.656;2024-02-16T04:08:54;2.38;;;1.55;;
44925;SDS011;30662;51.210;7.656;2024-02-16T04:11:21;4.72;;;1.85;;
44925;SDS011;30662;51.210;7.656;2024-02-16T04:13:48;3.45;;;1.50;;
44925;SDS011;30662;51.210;7.656;2024-02-16T04:16:15;2.90;;;1.63;;
44925;SDS011;30662;51.210;7.656;2024-02-16T04:18:41;2.28;;;1.50;;
44925;SDS011;30662;51.210;7.656;2024-02-16T04:21:08;5.95;;;2.05;;
44925;SDS011;30662;51.210;7.656;2024-02-16T04:23:39;4.78;;;1.80;;
44925;SDS011;30662;51.210;7.656;2024-02-16T04:26:06;1.63;;;1.17;;
44925;SDS011;30662;51.210;7.656;2024-02-16T04:28:32;3.40;;;1.58;;
44925;SDS011;30662;51.210;7.656;2024-02-16T04:31:00;3.60;;;1.70;;
44925;SDS011;30662;51.210;7.656;2024-02-16T04:33:26;3.45;;;1.95;;
44925;SDS011;30662;51.210;7.656;2024-02-16T04:35:53;2.20;;;1.65;;
44925;SDS011;30662;51.210;7.656;2024-02-16T04:38:20;3.20;;;1.95;;
44925;SDS011;30662;51.210;7.656;2024-02-16T04:40:48;4.35;;;1.90;;
44925;SDS011;30662;51.210;7.656;2024-02-16T04:43:15;4.82;;;2.05;;
44925;SDS011;30662;51.210;7.656;2024-02-16T04:45:41;3.92;;;1.73;;
44925;SDS011;30662;51.210;7.656;2024-02-16T04:48:08;6.30;;;2.00;;
44925;SDS011;30662;51.210;7.656;2024-02-16T04:50:35;2.40;;;1.75;;
44925;SDS011;30662;51.210;7.656;2024-02-16T04:53:02;4.22;;;1.83;;
44925;SDS011;30662;51.210;7.656;2024-02-16T04:55:29;3.35;;;1.90;;
44925;SDS011;30662;51.210;7.656;2024-02-16T04:57:56;7.68;;;1.90;;
44925;SDS011;30662;51.210;7.656;2024-02-16T05:00:23;4.38;;;1.83;;
44925;SDS011;30662;51.210;7.656;2024-02-16T05:02:50;4.22;;;1.33;;
44925;SDS011;30662;51.210;7.656;2024-02-16T05:05:17;5.97;;;1.90;;
44925;SDS011;30662;51.210;7.656;2024-02-16T05:07:46;3.72;;;1.65;;
44925;SDS011;30662;51.210;7.656;2024-02-16T05:10:14;4.68;;;1.48;;
44925;SDS011;30662;51.210;7.656;2024-02-16T05:12:40;2.95;;;1.65;;
44925;SDS011;30662;51.210;7.656;2024-02-16T05:15:09;4.18;;;1.63;;
44925;SDS011;30662;51.210;7.656;2024-02-16T05:17:36;4.18;;;1.80;;
44925;SDS011;30662;51.210;7.656;2024-02-16T05:20:03;6.60;;;1.70;;
44925;SDS011;30662;51.210;7.656;2024-02-16T05:22:33;2.30;;;1.70;;
44925;SDS011;30662;51.210;7.656;2024-02-16T05:25:00;4.28;;;1.63;;
44925;SDS011;30662;51.210;7.656;2024-02-16T05:27:27;3.40;;;1.50;;
44925;SDS011;30662;51.210;7.656;2024-02-16T05:29:53;4.45;;;2.55;;
44925;SDS011;30662;51.210;7.656;2024-02-16T05:32:21;2.75;;;1.60;;
44925;SDS011;30662;51.210;7.656;2024-02-16T05:34:48;4.80;;;1.85;;
44925;SDS011;30662;51.210;7.656;2024-02-16T05:37:16;2.95;;;1.40;;
44925;SDS011;30662;51.210;7.656;2024-02-16T05:39:43;3.38;;;1.77;;
44925;SDS011;30662;51.210;7.656;2024-02-16T05:42:10;4.68;;;1.92;;
44925;SDS011;30662;51.210;7.656;2024-02-16T05:44:36;5.80;;;1.80;;
44925;SDS011;30662;51.210;7.656;2024-02-16T05:47:03;2.88;;;1.58;;
44925;SDS011;30662;51.210;7.656;2024-02-16T05:49:31;3.97;;;1.80;;
44925;SDS011;30662;51.210;7.656;2024-02-16T05:51:58;5.32;;;1.95;;
44925;SDS011;30662;51.210;7.656;2024-02-16T05:54:25;4.65;;;2.15;;
44925;SDS011;30662;51.210;7.656;2024-02-16T05:56:52;3.20;;;1.67;;
44925;SDS011;30662;51.210;7.656;2024-02-16T05:59:19;3.25;;;2.00;;
44925;SDS011;30662;51.210;7.656;2024-02-16T06:01:46;3.22;;;1.60;;
44925;SDS011;30662;51.210;7.656;2024-02-16T06:04:12;5.28;;;1.73;;
44925;SDS011;30662;51.210;7.656;2024-02-16T06:06:40;3.40;;;1.85;;
44925;SDS011;30662;51.210;7.656;2024-02-16T06:09:07;2.83;;;1.65;;
44925;SDS011;30662;51.210;7.656;2024-02-16T06:11:36;7.18;;;3.08;;
44925;SDS011;30662;51.210;7.656;2024-02-16T06:14:03;4.18;;;2.28;;
44925;SDS011;30662;51.210;7.656;2024-02-16T06:16:29;6.82;;;2.65;;
44925;SDS011;30662;51.210;7.656;2024-02-16T06:18:56;4.00;;;1.70;;
44925;SDS011;30662;51.210;7.656;2024-02-16T06:21:23;7.68;;;4.93;;
44925;SDS011;30662;51.210;7.656;2024-02-16T06:23:51;7.38;;;4.07;;
44925;SDS011;30662;51.210;7.656;2024-02-16T06:26:18;3.35;;;2.13;;
44925;SDS011;30662;51.210;7.656;2024-02-16T06:28:44;3.50;;;1.83;;
44925;SDS011;30662;51.210;7.656;2024-02-16T06:31:12;5.88;;;1.98;;
44925;SDS011;30662;51.210;7.656;2024-02-16T06:33:39;4.28;;;2.55;;
44925;SDS011;30662;51.210;7.656;2024-02-16T06:36:06;4.38;;;2.42;;
44925;SDS011;30662;51.210;7.656;2024-02-16T06:38:33;3.17;;;2.28;;
44925;SDS011;30662;51.210;7.656;2024-02-16T06:41:01;3.72;;;2.35;;
44925;SDS011;30662;51.210;7.656;2024-02-16T06:43:28;7.00;;;2.97;;
44925;SDS011;30662;51.210;7.656;2024-02-16T06:45:55;7.68;;;2.80;;
44925;SDS011;30662;51.210;7.656;2024-02-16T06:48:21;4.25;;;2.35;;
44925;SDS011;30662;51.210;7.656;2024-02-16T06:50:48;9.43;;;2.55;;
44925;SDS011;30662;51.210;7.656;2024-02-16T06:53:15;4.13;;;2.13;;
44925;SDS011;30662;51.210;7.656;2024-02-16T06:55:42;4.43;;;2.05;;
44925;SDS011;30662;51.210;7.656;2024-02-16T06:58:10;5.57;;;2.10;;
44925;SDS011;30662;51.210;7.656;2024-02-16T07:00:36;5.80;;;2.20;;
44925;SDS011;30662;51.210;7.656;2024-02-16T07:03:03;6.78;;;2.20;;
44925;SDS011;30662;51.210;7.656;2024-02-16T07:05:30;4.38;;;2.65;;
44925;SDS011;30662;51.210;7.656;2024-02-16T07:07:59;3.55;;;1.90;;
44925;SDS011;30662;51.210;7.656;2024-02-16T07:10:26;4.70;;;2.00;;
44925;SDS011;30662;51.210;7.656;2024-02-16T07:12:52;4.43;;;1.75;;
44925;SDS011;30662;51.210;7.656;2024-02-16T07:15:21;7.85;;;2.45;;
44925;SDS011;30662;51.210;7.656;2024-02-16T07:17:56;5.45;;;2.65;;
44925;SDS011;30662;51.210;7.656;2024-02-16T07:20:23;3.65;;;2.33;;
44925;SDS011;30662;51.210;7.656;2024-02-16T07:22:49;4.72;;;2.70;;
44925;SDS011;30662;51.210;7.656;2024-02-16T07:25:16;5.65;;;2.63;;
44925;SDS011;30662;51.210;7.656;2024-02-16T07:27:43;6.93;;;2.30;;
44925;SDS011;30662;51.210;7.656;2024-02-16T07:30:10;5.50;;;2.50;;
44925;SDS011;30662;51.210;7.656;2024-02-16T07:32:39;4.75;;;2.45;;
44925;SDS011;30662;51.210;7.656;2024-02-16T07:35:06;3.17;;;2.28;;
44925;SDS011;30662;51.210;7.656;2024-02-16T07:37:33;4.00;;;2.17;;
44925;SDS011;30662;51.210;7.656;2024-02-16T07:39:59;5.57;;;2.10;;
44925;SDS011;30662;51.210;7.656;2024-02-16T07:42:26;6.18;;;2.58;;
44925;SDS011;30662;51.210;7.656;2024-02-16T07:44:53;5.35;;;2.67;;
44925;SDS011;30662;51.210;7.656;2024-02-16T07:47:20;5.57;;;2.17;;
44925;SDS011;30662;51.210;7.656;2024-02-16T07:49:48;10.10;;;2.47;;
44925;SDS011;30662;51.210;7.656;2024-02-16T07:52:15;3.10;;;2.20;;
44925;SDS011;30662;51.210;7.656;2024-02-16T07:54:41;2.95;;;2.03;;
44925;SDS011;30662;51.210;7.656;2024-02-16T07:57:08;5.85;;;2.05;;
44925;SDS011;30662;51.210;7.656;2024-02-16T07:59:35;4.78;;;2.65;;
44925;SDS011;30662;51.210;7.656;2024-02-16T08:02:02;4.07;;;1.88;;
44925;SDS011;30662;51.210;7.656;2024-02-16T08:04:28;3.88;;;2.05;;
44925;SDS011;30662;51.210;7.656;2024-02-16T08:06:56;6.65;;;2.10;;
44925;SDS011;30662;51.210;7.656;2024-02-16T08:09:23;5.47;;;2.40;;
44925;SDS011;30662;51.210;7.656;2024-02-16T08:11:50;3.67;;;2.03;;
44925;SDS011;30662;51.210;7.656;2024-02-16T08:14:17;6.50;;;2.25;;
44925;SDS011;30662;51.210;7.656;2024-02-16T08:16:44;3.88;;;1.70;;
44925;SDS011;30662;51.210;7.656;2024-02-16T08:19:11;6.22;;;2.40;;
44925;SDS011;30662;51.210;7.656;2024-02-16T08:21:37;6.50;;;2.30;;
44925;SDS011;30662;51.210;7.656;2024-02-16T08:24:06;4.15;;;2.05;;
44925;SDS011;30662;51.210;7.656;2024-02-16T08:26:33;3.20;;;1.95;;
44925;SDS011;30662;51.210;7.656;2024-02-16T08:28:59;6.13;;;2.10;;
44925;SDS011;30662;51.210;7.656;2024-02-16T08:31:26;5.70;;;2.28;;
44925;SDS011;30662;51.210;7.656;2024-02-16T08:33:53;7.13;;;2.35;;
44925;SDS011;30662;51.210;7.656;2024-02-16T08:36:20;3.20;;;2.13;;
44925;SDS011;30662;51.210;7.656;2024-02-16T08:38:46;3.80;;;2.15;;
44925;SDS011;30662;51.210;7.656;2024-02-16T08:41:14;5.25;;;2.85;;
44925;SDS011;30662;51.210;7.656;2024-02-16T08:43:41;6.60;;;2.50;;
44925;SDS011;30662;51.210;7.656;2024-02-16T08:46:08;5.97;;;2.10;;
44925;SDS011;30662;51.210;7.656;2024-02-16T08:48:35;6.20;;;2.75;;
44925;SDS011;30662;51.210;7.656;2024-02-16T08:51:01;5.53;;;2.30;;
44925;SDS011;30662;51.210;7.656;2024-02-16T08:53:28;8.98;;;2.85;;
44925;SDS011;30662;51.210;7.656;2024-02-16T08:55:55;4.70;;;2.38;;
44925;SDS011;30662;51.210;7.656;2024-02-16T08:58:26;8.88;;;3.92;;
44925;SDS011;30662;51.210;7.656;2024-02-16T09:00:53;5.93;;;2.92;;
44925;SDS011;30662;51.210;7.656;2024-02-16T09:03:20;4.97;;;2.80;;
44925;SDS011;30662;51.210;7.656;2024-02-16T09:05:46;6.10;;;2.63;;
44925;SDS011;30662;51.210;7.656;2024-02-16T09:08:13;8.02;;;2.65;;
44925;SDS011;30662;51.210;7.656;2024-02-16T09:10:40;5.50;;;2.20;;
44925;SDS011;30662;51.210;7.656;2024-02-16T09:13:07;4.32;;;2.25;;
44925;SDS011;30662;51.210;7.656;2024-02-16T09:15:35;5.30;;;2.50;;
44925;SDS011;30662;51.210;7.656;2024-02-16T09:18:02;7.25;;;3.33;;
44925;SDS011;30662;51.210;7.656;2024-02-16T09:20:29;5.60;;;2.75;;
44925;SDS011;30662;51.210;7.656;2024-02-16T09:22:55;5.35;;;2.42;;
44925;SDS011;30662;51.210;7.656;2024-02-16T09:25:22;5.95;;;3.00;;
44925;SDS011;30662;51.210;7.656;2024-02-16T09:27:49;8.50;;;2.50;;
44925;SDS011;30662;51.210;7.656;2024-02-16T09:30:16;4.20;;;2.30;;
44925;SDS011;30662;51.210;7.656;2024-02-16T09:32:45;9.35;;;3.20;;
44925;SDS011;30662;51.210;7.656;2024-02-16T09:35:11;5.50;;;2.67;;
44925;SDS011;30662;51.210;7.656;2024-02-16T09:37:39;7.15;;;2.58;;
44925;SDS011;30662;51.210;7.656;2024-02-16T09:40:06;8.68;;;2.38;;
44925;SDS011;30662;51.210;7.656;2024-02-16T09:42:34;4.53;;;2.15;;
44925;SDS011;30662;51.210;7.656;2024-02-16T09:45:05;5.43;;;3.35;;
44925;SDS011;30662;51.210;7.656;2024-02-16T09:47:33;6.00;;;3.00;;
44925;SDS011;30662;51.210;7.656;2024-02-16T09:50:01;7.45;;;2.83;;
44925;SDS011;30662;51.210;7.656;2024-02-16T09:52:28;6.25;;;2.63;;
44925;SDS011;30662;51.210;7.656;2024-02-16T09:54:55;6.55;;;3.13;;
44925;SDS011;30662;51.210;7.656;2024-02-16T09:57:22;7.47;;;2.85;;
44925;SDS011;30662;51.210;7.656;2024-02-16T09:59:49;4.10;;;2.08;;
44925;SDS011;30662;51.210;7.656;2024-02-16T10:02:15;5.13;;;2.75;;
44925;SDS011;30662;51.210;7.656;2024-02-16T10:04:42;5.57;;;2.65;;
44925;SDS011;30662;51.210;7.656;2024-02-16T10:07:10;8.88;;;2.85;;
44925;SDS011;30662;51.210;7.656;2024-02-16T10:09:39;3.05;;;1.95;;
44925;SDS011;30662;51.210;7.656;2024-02-16T10:12:06;6.97;;;2.53;;
44925;SDS011;30662;51.210;7.656;2024-02-16T10:14:33;7.10;;;2.83;;
44925;SDS011;30662;51.210;7.656;2024-02-16T10:17:07;5.85;;;3.85;;
44925;SDS011;30662;51.210;7.656;2024-02-16T10:19:34;3.83;;;2.78;;
44925;SDS011;30662;51.210;7.656;2024-02-16T10:22:05;7.90;;;2.53;;
44925;SDS011;30662;51.210;7.656;2024-02-16T10:24:34;6.53;;;2.47;;
44925;SDS011;30662;51.210;7.656;2024-02-16T10:27:01;4.88;;;2.70;;
44925;SDS011;30662;51.210;7.656;2024-02-16T10:29:28;6.97;;;2.65;;
44925;SDS011;30662;51.210;7.656;2024-02-16T10:31:56;4.70;;;2.60;;
44925;SDS011;30662;51.210;7.656;2024-02-16T10:34:23;6.18;;;2.78;;
44925;SDS011;30662;51.210;7.656;2024-02-16T10:36:51;6.25;;;2.53;;
44925;SDS011;30662;51.210;7.656;2024-02-16T10:39:18;8.80;;;2.70;;
44925;SDS011;30662;51.210;7.656;2024-02-16T10:41:47;5.22;;;2.70;;
44925;SDS011;30662;51.210;7.656;2024-02-16T10:44:15;7.53;;;2.53;;
44925;SDS011;30662;51.210;7.656;2024-02-16T10:46:42;8.10;;;2.80;;
44925;SDS011;30662;51.210;7.656;2024-02-16T10:49:09;6.57;;;2.65;;
44925;SDS011;30662;51.210;7.656;2024-02-16T10:51:37;4.18;;;2.53;;
44925;SDS011;30662;51.210;7.656;2024-02-16T10:54:07;7.13;;;2.60;;
44925;SDS011;30662;51.210;7.656;2024-02-16T10:56:35;6.10;;;3.35;;
44925;SDS011;30662;51.210;7.656;2024-02-16T10:59:04;6.35;;;3.70;;
44925;SDS011;30662;51.210;7.656;2024-02-16T11:01:32;7.30;;;2.72;;
44925;SDS011;30662;51.210;7.656;2024-02-16T11:04:03;8.10;;;3.20;;
44925;SDS011;30662;51.210;7.656;2024-02-16T11:06:31;6.75;;;3.03;;
44925;SDS011;30662;51.210;7.656;2024-02-16T11:09:01;5.28;;;2.80;;
44925;SDS011;30662;51.210;7.656;2024-02-16T11:11:28;8.40;;;3.10;;
44925;SDS011;30662;51.210;7.656;2024-02-16T11:13:55;7.38;;;4.60;;
44925;SDS011;30662;51.210;7.656;2024-02-16T11:16:23;7.22;;;3.38;;
44925;SDS011;30662;51.210;7.656;2024-02-16T11:18:52;4.38;;;2.67;;
44925;SDS011;30662;51.210;7.656;2024-02-16T11:21:18;6.03;;;3.00;;
44925;SDS011;30662;51.210;7.656;2024-02-16T11:23:45;4.57;;;2.88;;
44925;SDS011;30662;51.210;7.656;2024-02-16T11:26:12;6.20;;;2.90;;
44925;SDS011;30662;51.210;7.656;2024-02-16T11:28:40;5.72;;;3.25;;
44925;SDS011;30662;51.210;7.656;2024-02-16T11:31:07;7.28;;;3.22;;
44925;SDS011;30662;51.210;7.656;2024-02-16T11:33:36;6.55;;;3.30;;
44925;SDS011;30662;51.210;7.656;2024-02-16T11:36:09;7.32;;;4.03;;
44925;SDS011;30662;51.210;7.656;2024-02-16T11:38:36;7.18;;;3.28;;
44925;SDS011;30662;51.210;7.656;2024-02-16T11:41:04;5.50;;;3.17;;
44925;SDS011;30662;51.210;7.656;2024-02-16T11:43:32;6.15;;;3.03;;
44925;SDS011;30662;51.210;7.656;2024-02-16T11:45:59;10.65;;;2.90;;
44925;SDS011;30662;51.210;7.656;2024-02-16T11:48:26;8.32;;;2.90;;
44925;SDS011;30662;51.210;7.656;2024-02-16T11:51:00;5.95;;;3.08;;
44925;SDS011;30662;51.210;7.656;2024-02-16T11:53:28;7.53;;;2.75;;
44925;SDS011;30662;51.210;7.656;2024-02-16T11:55:55;5.32;;;2.85;;
44925;SDS011;30662;51.210;7.656;2024-02-16T11:58:21;9.23;;;3.03;;
44925;SDS011;30662;51.210;7.656;2024-02-16T12:00:50;6.65;;;3.58;;
44925;SDS011;30662;51.210;7.656;2024-02-16T12:03:18;5.30;;;2.58;;
44925;SDS011;30662;51.210;7.656;2024-02-16T12:05:50;5.43;;;3.00;;
44925;SDS011;30662;51.210;7.656;2024-02-16T12:08:19;5.75;;;3.17;;
44925;SDS011;30662;51.210;7.656;2024-02-16T12:10:46;8.85;;;3.20;;
44925;SDS011;30662;51.210;7.656;2024-02-16T12:13:13;6.05;;;3.10;;
44925;SDS011;30662;51.210;7.656;2024-02-16T12:15:43;5.50;;;2.70;;
44925;SDS011;30662;51.210;7.656;2024-02-16T12:18:10;5.07;;;3.00;;
44925;SDS011;30662;51.210;7.656;2024-02-16T12:20:37;7.32;;;2.92;;
44925;SDS011;30662;51.210;7.656;2024-02-16T12:23:10;8.75;;;4.13;;
44925;SDS011;30662;51.210;7.656;2024-02-16T12:25:39;4.65;;;2.58;;
44925;SDS011;30662;51.210;7.656;2024-02-16T12:28:06;4.85;;;2.88;;
44925;SDS011;30662;51.210;7.656;2024-02-16T12:30:32;6.85;;;3.20;;
44925;SDS011;30662;51.210;7.656;2024-02-16T12:32:59;10.05;;;3.05;;
44925;SDS011;30662;51.210;7.656;2024-02-16T12:35:26;4.25;;;2.58;;
44925;SDS011;30662;51.210;7.656;2024-02-16T12:37:53;10.23;;;4.22;;
44925;SDS011;30662;51.210;7.656;2024-02-16T12:40:19;5.18;;;3.25;;
44925;SDS011;30662;51.210;7.656;2024-02-16T12:42:47;4.55;;;2.67;;
44925;SDS011;30662;51.210;7.656;2024-02-16T12:45:14;6.82;;;3.17;;
44925;SDS011;30662;51.210;7.656;2024-02-16T12:47:41;7.72;;;3.10;;
44925;SDS011;30662;51.210;7.656;2024-02-16T12:50:08;6.07;;;3.03;;
44925;SDS011;30662;51.210;7.656;2024-02-16T12:52:35;4.60;;;2.85;;
44925;SDS011;30662;51.210;7.656;2024-02-16T12:55:16;7.45;;;3.15;;
44925;SDS011;30662;51.210;7.656;2024-02-16T12:57:43;5.70;;;2.83;;
44925;SDS011;30662;51.210;7.656;2024-02-16T13:00:12;7.13;;;3.78;;
44925;SDS011;30662;51.210;7.656;2024-02-16T13:02:39;8.55;;;3.72;;
44925;SDS011;30662;51.210;7.656;2024-02-16T13:05:07;5.97;;;3.05;;
44925;SDS011;30662;51.210;7.656;2024-02-16T13:07:34;5.15;;;3.35;;
44925;SDS011;30662;51.210;7.656;2024-02-16T13:10:02;8.00;;;3.30;;
44925;SDS011;30662;51.210;7.656;2024-02-16T13:12:29;6.45;;;3.10;;
44925;SDS011;30662;51.210;7.656;2024-02-16T13:14:57;7.45;;;3.80;;
44925;SDS011;30662;51.210;7.656;2024-02-16T13:17:28;4.78;;;3.28;;
44925;SDS011;30662;51.210;7.656;2024-02-16T13:19:58;8.65;;;3.88;;
44925;SDS011;30662;51.210;7.656;2024-02-16T13:22:25;5.00;;;3.40;;
44925;SDS011;30662;51.210;7.656;2024-02-16T13:24:52;7.22;;;3.45;;
44925;SDS011;30662;51.210;7.656;2024-02-16T13:27:19;9.27;;;3.60;;
44925;SDS011;30662;51.210;7.656;2024-02-16T13:29:45;9.35;;;3.78;;
44925;SDS011;30662;51.210;7.656;2024-02-16T13:32:12;7.25;;;3.58;;
44925;SDS011;30662;51.210;7.656;2024-02-16T13:34:40;8.18;;;3.45;;
44925;SDS011;30662;51.210;7.656;2024-02-16T13:37:07;5.60;;;3.35;;
44925;SDS011;30662;51.210;7.656;2024-02-16T13:39:34;11.30;;;3.67;;
44925;SDS011;30662;51.210;7.656;2024-02-16T13:42:01;8.88;;;3.65;;
44925;SDS011;30662;51.210;7.656;2024-02-16T13:44:27;8.32;;;3.78;;
44925;SDS011;30662;51.210;7.656;2024-02-16T13:46:54;10.23;;;3.67;;
44925;SDS011;30662;51.210;7.656;2024-02-16T13:49:21;6.70;;;4.47;;
44925;SDS011;30662;51.210;7.656;2024-02-16T13:51:49;9.73;;;3.80;;
44925;SDS011;30662;51.210;7.656;2024-02-16T13:54:16;9.88;;;4.20;;
44925;SDS011;30662;51.210;7.656;2024-02-16T13:56:43;11.05;;;4.25;;
44925;SDS011;30662;51.210;7.656;2024-02-16T13:59:10;7.25;;;3.92;;
44925;SDS011;30662;51.210;7.656;2024-02-16T14:01:36;6.10;;;4.07;;
44925;SDS011;30662;51.210;7.656;2024-02-16T14:04:03;8.73;;;4.05;;
44925;SDS011;30662;51.210;7.656;2024-02-16T14:06:30;8.18;;;4.78;;
44925;SDS011;30662;51.210;7.656;2024-02-16T14:08:59;8.27;;;4.72;;
44925;SDS011;30662;51.210;7.656;2024-02-16T14:11:25;7.60;;;4.70;;
44925;SDS011;30662;51.210;7.656;2024-02-16T14:13:52;7.55;;;4.50;;
44925;SDS011;30662;51.210;7.656;2024-02-16T14:16:19;8.90;;;4.82;;
44925;SDS011;30662;51.210;7.656;2024-02-16T14:18:46;8.93;;;4.40;;
44925;SDS011;30662;51.210;7.656;2024-02-16T14:21:13;7.43;;;4.80;;
44925;SDS011;30662;51.210;7.656;2024-02-16T14:23:40;11.85;;;4.93;;
44925;SDS011;30662;51.210;7.656;2024-02-16T14:26:08;11.05;;;6.82;;
44925;SDS011;30662;51.210;7.656;2024-02-16T14:28:34;13.30;;;6.70;;
44925;SDS011;30662;51.210;7.656;2024-02-16T14:31:01;10.85;;;5.40;;
44925;SDS011;30662;51.210;7.656;2024-02-16T14:33:28;10.73;;;5.40;;
44925;SDS011;30662;51.210;7.656;2024-02-16T14:36:00;9.55;;;5.60;;
44925;SDS011;30662;51.210;7.656;2024-02-16T14:38:27;7.75;;;5.45;;
44925;SDS011;30662;51.210;7.656;2024-02-16T14:40:54;9.18;;;5.60;;
44925;SDS011;30662;51.210;7.656;2024-02-16T14:43:24;10.00;;;6.40;;
44925;SDS011;30662;51.210;7.656;2024-02-16T14:45:51;9.70;;;6.47;;
44925;SDS011;30662;51.210;7.656;2024-02-16T14:48:18;11.13;;;6.57;;